sensor_id;sensor_type;location;lat;lon;timestamp;temperature;humidity
6756;DHT22;3415;51.148;7.014;2023-02-01T00:02:21;5.50;1.00
6756;DHT22;3415;51.148;7.014;2023-02-01T00:04:48;5.40;1.00
6756;DHT22;3415;51.148;7.014;2023-02-01T00:07:15;5.50;1.00
6756;DHT22;3415;51.148;7.014;2023-02-01T00:09:42;5.50;1.00
6756;DHT22;3415;51.148;7.014;2023-02-01T00:12:10;5.50;1.00
6756;DHT22;3415;51.148;7.014;2023-02-01T00:14:37;5.50;1.00
6756;DHT22;3415;51.148;7.014;2023-02-01T00:19:33;5.60;1.00
6756;DHT22;3415;51.148;7.014;2023-02-01T00:22:00;5.60;1.00
6756;DHT22;3415;51.148;7.014;2023-02-01T00:24:27;5.60;1.00
6756;DHT22;3415;51.148;7.014;2023-02-01T00:26:54;5.70;1.00
6756;DHT22;3415;51.148;7.014;2023-02-01T00:29:23;5.80;1.00
6756;DHT22;3415;51.148;7.014;2023-02-01T00:31:50;5.70;1.00
6756;DHT22;3415;51.148;7.014;2023-02-01T00:34:18;5.70;1.00
6756;DHT22;3415;51.148;7.014;2023-02-01T00:36:46;5.70;1.00
6756;DHT22;3415;51.148;7.014;2023-02-01T00:39:14;5.70;1.00
6756;DHT22;3415;51.148;7.014;2023-02-01T00:41:41;5.70;1.00
6756;DHT22;3415;51.148;7.014;2023-02-01T00:44:08;5.70;1.00
6756;DHT22;3415;51.148;7.014;2023-02-01T00:46:37;5.60;1.00
6756;DHT22;3415;51.148;7.014;2023-02-01T00:49:04;5.70;99.90
6756;DHT22;3415;51.148;7.014;2023-02-01T00:51:32;5.60;99.90
6756;DHT22;3415;51.148;7.014;2023-02-01T00:53:59;5.60;99.90
6756;DHT22;3415;51.148;7.014;2023-02-01T00:56:27;5.60;99.90
6756;DHT22;3415;51.148;7.014;2023-02-01T00:58:54;5.80;99.90
6756;DHT22;3415;51.148;7.014;2023-02-01T01:01:22;5.60;99.90
6756;DHT22;3415;51.148;7.014;2023-02-01T01:03:52;5.60;99.90
6756;DHT22;3415;51.148;7.014;2023-02-01T01:06:22;5.60;99.90
6756;DHT22;3415;51.148;7.014;2023-02-01T01:08:51;5.60;99.90
6756;DHT22;3415;51.148;7.014;2023-02-01T01:11:20;5.50;99.90
6756;DHT22;3415;51.148;7.014;2023-02-01T01:13:49;5.40;99.90
6756;DHT22;3415;51.148;7.014;2023-02-01T01:16:18;5.40;99.90
6756;DHT22;3415;51.148;7.014;2023-02-01T01:18:46;5.40;99.90
6756;DHT22;3415;51.148;7.014;2023-02-01T01:21:15;5.30;99.90
6756;DHT22;3415;51.148;7.014;2023-02-01T01:23:44;5.20;99.90
6756;DHT22;3415;51.148;7.014;2023-02-01T01:26:15;5.20;99.90
6756;DHT22;3415;51.148;7.014;2023-02-01T01:28:43;5.30;99.90
6756;DHT22;3415;51.148;7.014;2023-02-01T01:31:12;5.30;99.90
6756;DHT22;3415;51.148;7.014;2023-02-01T01:33:40;5.30;99.90
6756;DHT22;3415;51.148;7.014;2023-02-01T01:36:10;5.30;99.90
6756;DHT22;3415;51.148;7.014;2023-02-01T01:38:40;5.30;99.90
6756;DHT22;3415;51.148;7.014;2023-02-01T01:41:12;5.40;99.90
6756;DHT22;3415;51.148;7.014;2023-02-01T01:43:52;5.40;99.90
6756;DHT22;3415;51.148;7.014;2023-02-01T01:46:22;5.40;99.90
6756;DHT22;3415;51.148;7.014;2023-02-01T01:48:54;5.40;99.90
6756;DHT22;3415;51.148;7.014;2023-02-01T01:51:26;5.40;99.90
6756;DHT22;3415;51.148;7.014;2023-02-01T01:54:00;5.40;40.00
6756;DHT22;3415;51.148;7.014;2023-02-01T01:56:32;5.30;39.70
6756;DHT22;3415;51.148;7.014;2023-02-01T01:59:01;5.40;36.90
6756;DHT22;3415;51.148;7.014;2023-02-01T02:01:29;5.20;25.20
6756;DHT22;3415;51.148;7.014;2023-02-01T02:03:56;5.20;15.10
6756;DHT22;3415;51.148;7.014;2023-02-01T02:06:42;5.10;6.40
6756;DHT22;3415;51.148;7.014;2023-02-01T02:09:14;5.10;1.00
6756;DHT22;3415;51.148;7.014;2023-02-01T02:11:42;5.10;1.00
6756;DHT22;3415;51.148;7.014;2023-02-01T02:14:11;5.10;1.00
6756;DHT22;3415;51.148;7.014;2023-02-01T02:16:58;5.10;1.00
6756;DHT22;3415;51.148;7.014;2023-02-01T02:19:50;5.10;1.00
6756;DHT22;3415;51.148;7.014;2023-02-01T02:22:59;5.00;1.00
6756;DHT22;3415;51.148;7.014;2023-02-01T02:26:23;5.00;1.00
6756;DHT22;3415;51.148;7.014;2023-02-01T02:29:14;5.00;1.00
6756;DHT22;3415;51.148;7.014;2023-02-01T02:32:21;4.90;1.00
6756;DHT22;3415;51.148;7.014;2023-02-01T02:35:02;4.90;1.00
6756;DHT22;3415;51.148;7.014;2023-02-01T02:37:38;4.80;1.00
6756;DHT22;3415;51.148;7.014;2023-02-01T02:40:14;4.70;1.00
6756;DHT22;3415;51.148;7.014;2023-02-01T02:42:50;4.90;1.00
6756;DHT22;3415;51.148;7.014;2023-02-01T02:45:40;4.70;1.00
6756;DHT22;3415;51.148;7.014;2023-02-01T02:48:30;4.70;1.00
6756;DHT22;3415;51.148;7.014;2023-02-01T02:51:09;4.70;1.00
6756;DHT22;3415;51.148;7.014;2023-02-01T02:54:05;4.70;1.00
6756;DHT22;3415;51.148;7.014;2023-02-01T02:56:53;4.70;1.00
6756;DHT22;3415;51.148;7.014;2023-02-01T02:59:40;4.60;1.00
6756;DHT22;3415;51.148;7.014;2023-02-01T03:02:27;4.70;1.00
6756;DHT22;3415;51.148;7.014;2023-02-01T03:05:12;4.80;1.00
6756;DHT22;3415;51.148;7.014;2023-02-01T03:07:54;4.80;1.00
6756;DHT22;3415;51.148;7.014;2023-02-01T03:10:29;4.80;1.00
6756;DHT22;3415;51.148;7.014;2023-02-01T03:13:04;4.70;1.00
6756;DHT22;3415;51.148;7.014;2023-02-01T03:15:37;7.90;1.00
6756;DHT22;3415;51.148;7.014;2023-02-01T03:18:12;4.70;1.00
6756;DHT22;3415;51.148;7.014;2023-02-01T03:20:44;4.70;1.00
6756;DHT22;3415;51.148;7.014;2023-02-01T03:23:16;4.70;1.00
6756;DHT22;3415;51.148;7.014;2023-02-01T03:25:47;4.80;1.00
6756;DHT22;3415;51.148;7.014;2023-02-01T03:28:17;4.80;1.00
6756;DHT22;3415;51.148;7.014;2023-02-01T03:30:48;4.80;1.00
6756;DHT22;3415;51.148;7.014;2023-02-01T03:33:18;4.80;1.00
6756;DHT22;3415;51.148;7.014;2023-02-01T03:35:57;5.00;1.00
6756;DHT22;3415;51.148;7.014;2023-02-01T03:38:32;4.80;1.00
6756;DHT22;3415;51.148;7.014;2023-02-01T03:41:06;4.80;1.00
6756;DHT22;3415;51.148;7.014;2023-02-01T03:43:45;5.00;1.00
6756;DHT22;3415;51.148;7.014;2023-02-01T03:46:21;5.00;1.00
6756;DHT22;3415;51.148;7.014;2023-02-01T03:48:52;5.00;1.00
6756;DHT22;3415;51.148;7.014;2023-02-01T03:51:20;5.00;1.00
6756;DHT22;3415;51.148;7.014;2023-02-01T03:53:51;5.00;1.00
6756;DHT22;3415;51.148;7.014;2023-02-01T03:56:21;5.00;1.00
6756;DHT22;3415;51.148;7.014;2023-02-01T03:58:48;5.00;1.00
6756;DHT22;3415;51.148;7.014;2023-02-01T04:01:25;5.00;1.00
6756;DHT22;3415;51.148;7.014;2023-02-01T04:03:53;5.00;1.00
6756;DHT22;3415;51.148;7.014;2023-02-01T04:06:21;5.00;1.00
6756;DHT22;3415;51.148;7.014;2023-02-01T04:08:49;5.00;1.00
6756;DHT22;3415;51.148;7.014;2023-02-01T04:11:17;5.10;1.00
6756;DHT22;3415;51.148;7.014;2023-02-01T04:13:45;5.00;1.00
6756;DHT22;3415;51.148;7.014;2023-02-01T04:16:12;5.10;1.00
6756;DHT22;3415;51.148;7.014;2023-02-01T04:18:38;5.20;1.00
6756;DHT22;3415;51.148;7.014;2023-02-01T04:21:06;5.10;1.00
6756;DHT22;3415;51.148;7.014;2023-02-01T04:23:33;5.10;1.00
6756;DHT22;3415;51.148;7.014;2023-02-01T04:26:04;5.20;1.00
6756;DHT22;3415;51.148;7.014;2023-02-01T04:30:58;5.20;1.00
6756;DHT22;3415;51.148;7.014;2023-02-01T04:33:25;5.40;1.00
6756;DHT22;3415;51.148;7.014;2023-02-01T04:35:52;5.00;1.00
6756;DHT22;3415;51.148;7.014;2023-02-01T04:38:19;5.10;1.00
6756;DHT22;3415;51.148;7.014;2023-02-01T04:40:47;5.00;1.00
6756;DHT22;3415;51.148;7.014;2023-02-01T04:43:16;4.90;1.00
6756;DHT22;3415;51.148;7.014;2023-02-01T04:45:47;4.90;1.00
6756;DHT22;3415;51.148;7.014;2023-02-01T04:48:15;4.80;1.00
6756;DHT22;3415;51.148;7.014;2023-02-01T04:50:43;4.80;1.00
6756;DHT22;3415;51.148;7.014;2023-02-01T04:53:13;4.80;1.00
6756;DHT22;3415;51.148;7.014;2023-02-01T04:55:40;4.80;1.00
6756;DHT22;3415;51.148;7.014;2023-02-01T04:58:08;4.90;1.00
6756;DHT22;3415;51.148;7.014;2023-02-01T05:00:36;4.90;1.00
6756;DHT22;3415;51.148;7.014;2023-02-01T05:03:03;5.00;1.00
6756;DHT22;3415;51.148;7.014;2023-02-01T05:05:30;5.00;1.00
6756;DHT22;3415;51.148;7.014;2023-02-01T05:07:58;5.00;1.00
6756;DHT22;3415;51.148;7.014;2023-02-01T05:10:25;5.00;1.00
6756;DHT22;3415;51.148;7.014;2023-02-01T05:12:52;5.00;1.00
6756;DHT22;3415;51.148;7.014;2023-02-01T05:15:38;5.00;1.00
6756;DHT22;3415;51.148;7.014;2023-02-01T05:18:05;5.00;1.00
6756;DHT22;3415;51.148;7.014;2023-02-01T05:20:32;5.10;1.00
6756;DHT22;3415;51.148;7.014;2023-02-01T05:22:59;5.10;1.00
6756;DHT22;3415;51.148;7.014;2023-02-01T05:25:26;5.10;1.00
6756;DHT22;3415;51.148;7.014;2023-02-01T05:27:53;4.90;1.00
6756;DHT22;3415;51.148;7.014;2023-02-01T05:30:20;5.00;1.00
6756;DHT22;3415;51.148;7.014;2023-02-01T05:32:50;5.00;1.00
6756;DHT22;3415;51.148;7.014;2023-02-01T05:35:18;5.10;1.00
6756;DHT22;3415;51.148;7.014;2023-02-01T05:37:45;4.80;1.00
6756;DHT22;3415;51.148;7.014;2023-02-01T05:40:12;4.80;1.00
6756;DHT22;3415;51.148;7.014;2023-02-01T05:42:39;4.70;1.00
6756;DHT22;3415;51.148;7.014;2023-02-01T05:45:07;4.80;1.00
6756;DHT22;3415;51.148;7.014;2023-02-01T05:47:35;4.80;1.00
6756;DHT22;3415;51.148;7.014;2023-02-01T05:50:04;4.80;1.00
6756;DHT22;3415;51.148;7.014;2023-02-01T05:52:32;4.80;1.00
6756;DHT22;3415;51.148;7.014;2023-02-01T05:54:59;4.80;1.00
6756;DHT22;3415;51.148;7.014;2023-02-01T05:57:26;4.80;1.00
6756;DHT22;3415;51.148;7.014;2023-02-01T05:59:54;4.80;1.00
6756;DHT22;3415;51.148;7.014;2023-02-01T06:02:21;4.80;1.00
6756;DHT22;3415;51.148;7.014;2023-02-01T06:04:49;4.80;1.00
6756;DHT22;3415;51.148;7.014;2023-02-01T06:07:17;4.80;1.00
6756;DHT22;3415;51.148;7.014;2023-02-01T06:09:44;4.70;1.00
6756;DHT22;3415;51.148;7.014;2023-02-01T06:12:11;4.80;1.00
6756;DHT22;3415;51.148;7.014;2023-02-01T06:14:39;4.80;1.00
6756;DHT22;3415;51.148;7.014;2023-02-01T06:17:06;4.70;1.00
6756;DHT22;3415;51.148;7.014;2023-02-01T06:19:33;4.70;1.00
6756;DHT22;3415;51.148;7.014;2023-02-01T06:22:00;4.70;1.00
6756;DHT22;3415;51.148;7.014;2023-02-01T06:24:32;4.70;1.00
6756;DHT22;3415;51.148;7.014;2023-02-01T06:26:59;4.70;1.00
6756;DHT22;3415;51.148;7.014;2023-02-01T06:29:26;4.90;1.00
6756;DHT22;3415;51.148;7.014;2023-02-01T06:31:53;4.90;1.00
6756;DHT22;3415;51.148;7.014;2023-02-01T06:34:20;5.10;1.00
6756;DHT22;3415;51.148;7.014;2023-02-01T06:36:48;4.90;1.00
6756;DHT22;3415;51.148;7.014;2023-02-01T06:39:15;4.90;1.00
6756;DHT22;3415;51.148;7.014;2023-02-01T06:41:46;4.90;1.00
6756;DHT22;3415;51.148;7.014;2023-02-01T06:44:13;5.00;1.00
6756;DHT22;3415;51.148;7.014;2023-02-01T06:46:40;5.00;1.00
6756;DHT22;3415;51.148;7.014;2023-02-01T06:49:07;5.00;1.00
6756;DHT22;3415;51.148;7.014;2023-02-01T06:51:34;5.00;1.00
6756;DHT22;3415;51.148;7.014;2023-02-01T06:54:01;5.00;1.00
6756;DHT22;3415;51.148;7.014;2023-02-01T06:56:28;5.20;1.00
6756;DHT22;3415;51.148;7.014;2023-02-01T06:58:58;5.00;1.00
6756;DHT22;3415;51.148;7.014;2023-02-01T07:01:26;5.10;1.00
6756;DHT22;3415;51.148;7.014;2023-02-01T07:03:53;5.00;1.00
6756;DHT22;3415;51.148;7.014;2023-02-01T07:06:20;5.10;1.00
6756;DHT22;3415;51.148;7.014;2023-02-01T07:08:47;5.10;1.00
6756;DHT22;3415;51.148;7.014;2023-02-01T07:11:16;5.10;1.00
6756;DHT22;3415;51.148;7.014;2023-02-01T07:13:44;5.20;1.00
6756;DHT22;3415;51.148;7.014;2023-02-01T07:16:15;5.10;1.00
6756;DHT22;3415;51.148;7.014;2023-02-01T07:18:43;5.10;1.00
6756;DHT22;3415;51.148;7.014;2023-02-01T07:21:11;5.10;1.00
6756;DHT22;3415;51.148;7.014;2023-02-01T07:23:38;5.20;1.00
6756;DHT22;3415;51.148;7.014;2023-02-01T07:26:07;5.20;1.00
6756;DHT22;3415;51.148;7.014;2023-02-01T07:28:38;5.20;1.00
6756;DHT22;3415;51.148;7.014;2023-02-01T07:31:06;5.10;1.00
6756;DHT22;3415;51.148;7.014;2023-02-01T07:33:36;5.20;1.00
6756;DHT22;3415;51.148;7.014;2023-02-01T07:36:05;5.20;1.00
6756;DHT22;3415;51.148;7.014;2023-02-01T07:38:33;5.20;1.00
6756;DHT22;3415;51.148;7.014;2023-02-01T07:41:02;5.20;1.00
6756;DHT22;3415;51.148;7.014;2023-02-01T07:43:31;5.20;1.00
6756;DHT22;3415;51.148;7.014;2023-02-01T07:45:59;5.30;1.00
6756;DHT22;3415;51.148;7.014;2023-02-01T07:48:27;5.20;1.00
6756;DHT22;3415;51.148;7.014;2023-02-01T07:50:59;5.20;1.00
6756;DHT22;3415;51.148;7.014;2023-02-01T07:53:29;5.30;1.00
6756;DHT22;3415;51.148;7.014;2023-02-01T07:55:56;5.30;1.00
6756;DHT22;3415;51.148;7.014;2023-02-01T07:58:25;5.30;1.00
6756;DHT22;3415;51.148;7.014;2023-02-01T08:00:52;5.20;1.00
6756;DHT22;3415;51.148;7.014;2023-02-01T08:03:37;5.20;1.00
6756;DHT22;3415;51.148;7.014;2023-02-01T08:06:06;5.30;1.00
6756;DHT22;3415;51.148;7.014;2023-02-01T08:08:33;5.30;1.00
6756;DHT22;3415;51.148;7.014;2023-02-01T08:11:02;5.20;1.00
6756;DHT22;3415;51.148;7.014;2023-02-01T08:13:30;5.30;1.00
6756;DHT22;3415;51.148;7.014;2023-02-01T08:15:58;5.30;1.00
6756;DHT22;3415;51.148;7.014;2023-02-01T08:18:25;5.30;1.00
6756;DHT22;3415;51.148;7.014;2023-02-01T08:20:52;5.40;1.00
6756;DHT22;3415;51.148;7.014;2023-02-01T08:23:21;5.30;1.00
6756;DHT22;3415;51.148;7.014;2023-02-01T08:25:49;5.40;1.00
6756;DHT22;3415;51.148;7.014;2023-02-01T08:30:43;5.30;1.00
6756;DHT22;3415;51.148;7.014;2023-02-01T08:33:10;5.30;1.00
6756;DHT22;3415;51.148;7.014;2023-02-01T08:35:38;5.40;1.00
6756;DHT22;3415;51.148;7.014;2023-02-01T08:38:05;5.40;1.00
6756;DHT22;3415;51.148;7.014;2023-02-01T08:40:33;5.30;1.00
6756;DHT22;3415;51.148;7.014;2023-02-01T08:43:00;5.30;1.00
6756;DHT22;3415;51.148;7.014;2023-02-01T08:45:29;5.40;1.00
6756;DHT22;3415;51.148;7.014;2023-02-01T08:47:56;5.30;1.00
6756;DHT22;3415;51.148;7.014;2023-02-01T08:50:24;5.30;1.00
6756;DHT22;3415;51.148;7.014;2023-02-01T08:52:52;5.30;1.00
6756;DHT22;3415;51.148;7.014;2023-02-01T08:55:19;5.40;1.00
6756;DHT22;3415;51.148;7.014;2023-02-01T08:57:48;5.30;1.00
6756;DHT22;3415;51.148;7.014;2023-02-01T09:00:16;5.40;1.00
6756;DHT22;3415;51.148;7.014;2023-02-01T09:02:44;5.40;1.00
6756;DHT22;3415;51.148;7.014;2023-02-01T09:05:11;5.40;1.00
6756;DHT22;3415;51.148;7.014;2023-02-01T09:07:39;5.40;1.00
6756;DHT22;3415;51.148;7.014;2023-02-01T09:10:07;5.50;1.00
6756;DHT22;3415;51.148;7.014;2023-02-01T09:12:35;5.50;1.00
6756;DHT22;3415;51.148;7.014;2023-02-01T09:15:06;5.50;1.00
6756;DHT22;3415;51.148;7.014;2023-02-01T09:17:34;5.50;1.00
6756;DHT22;3415;51.148;7.014;2023-02-01T09:20:01;5.60;1.00
6756;DHT22;3415;51.148;7.014;2023-02-01T09:22:29;5.50;1.00
6756;DHT22;3415;51.148;7.014;2023-02-01T09:24:56;5.60;1.00
6756;DHT22;3415;51.148;7.014;2023-02-01T09:27:23;5.60;1.00
6756;DHT22;3415;51.148;7.014;2023-02-01T09:29:50;5.60;1.00
6756;DHT22;3415;51.148;7.014;2023-02-01T09:32:21;5.50;1.00
6756;DHT22;3415;51.148;7.014;2023-02-01T09:34:49;5.70;1.00
6756;DHT22;3415;51.148;7.014;2023-02-01T09:37:16;5.60;1.00
6756;DHT22;3415;51.148;7.014;2023-02-01T09:39:43;5.70;1.00
6756;DHT22;3415;51.148;7.014;2023-02-01T09:42:21;5.80;1.00
6756;DHT22;3415;51.148;7.014;2023-02-01T09:45:04;5.80;1.00
6756;DHT22;3415;51.148;7.014;2023-02-01T09:47:43;5.80;1.00
6756;DHT22;3415;51.148;7.014;2023-02-01T09:50:15;5.70;1.00
6756;DHT22;3415;51.148;7.014;2023-02-01T09:52:51;5.80;1.00
6756;DHT22;3415;51.148;7.014;2023-02-01T09:55:29;5.80;1.00
6756;DHT22;3415;51.148;7.014;2023-02-01T09:58:02;5.80;1.00
6756;DHT22;3415;51.148;7.014;2023-02-01T10:00:35;5.70;1.00
6756;DHT22;3415;51.148;7.014;2023-02-01T10:03:07;5.60;1.00
6756;DHT22;3415;51.148;7.014;2023-02-01T10:08:54;5.60;1.00
6756;DHT22;3415;51.148;7.014;2023-02-01T10:11:39;5.60;1.00
6756;DHT22;3415;51.148;7.014;2023-02-01T10:17:20;5.60;1.00
6756;DHT22;3415;51.148;7.014;2023-02-01T10:20:05;5.70;1.00
6756;DHT22;3415;51.148;7.014;2023-02-01T10:22:40;5.70;1.00
6756;DHT22;3415;51.148;7.014;2023-02-01T10:25:13;5.70;1.00
6756;DHT22;3415;51.148;7.014;2023-02-01T10:27:45;5.70;1.00
6756;DHT22;3415;51.148;7.014;2023-02-01T10:30:18;5.80;1.00
6756;DHT22;3415;51.148;7.014;2023-02-01T10:32:49;5.70;1.00
6756;DHT22;3415;51.148;7.014;2023-02-01T10:35:28;5.80;1.00
6756;DHT22;3415;51.148;7.014;2023-02-01T10:38:00;5.80;1.00
6756;DHT22;3415;51.148;7.014;2023-02-01T10:40:28;5.80;1.00
6756;DHT22;3415;51.148;7.014;2023-02-01T10:42:58;5.80;1.00
6756;DHT22;3415;51.148;7.014;2023-02-01T10:45:29;5.80;1.00
6756;DHT22;3415;51.148;7.014;2023-02-01T10:47:58;5.90;1.00
6756;DHT22;3415;51.148;7.014;2023-02-01T10:50:34;5.90;1.00
6756;DHT22;3415;51.148;7.014;2023-02-01T10:53:08;6.00;1.00
6756;DHT22;3415;51.148;7.014;2023-02-01T10:55:40;5.90;1.00
6756;DHT22;3415;51.148;7.014;2023-02-01T10:58:16;6.00;1.00
6756;DHT22;3415;51.148;7.014;2023-02-01T11:00:52;6.00;1.00
6756;DHT22;3415;51.148;7.014;2023-02-01T11:03:39;6.10;1.00
6756;DHT22;3415;51.148;7.014;2023-02-01T11:06:18;6.10;1.00
6756;DHT22;3415;51.148;7.014;2023-02-01T11:08:51;6.10;1.00
6756;DHT22;3415;51.148;7.014;2023-02-01T11:11:19;6.10;1.00
6756;DHT22;3415;51.148;7.014;2023-02-01T11:13:53;6.40;1.00
6756;DHT22;3415;51.148;7.014;2023-02-01T11:16:28;6.20;1.00
6756;DHT22;3415;51.148;7.014;2023-02-01T11:18:58;6.20;1.00
6756;DHT22;3415;51.148;7.014;2023-02-01T11:21:27;6.20;1.00
6756;DHT22;3415;51.148;7.014;2023-02-01T11:23:54;6.30;1.00
6756;DHT22;3415;51.148;7.014;2023-02-01T11:26:23;6.20;1.00
6756;DHT22;3415;51.148;7.014;2023-02-01T11:28:54;6.30;1.00
6756;DHT22;3415;51.148;7.014;2023-02-01T11:31:24;6.40;1.00
6756;DHT22;3415;51.148;7.014;2023-02-01T11:33:54;6.40;1.00
6756;DHT22;3415;51.148;7.014;2023-02-01T11:36:28;6.40;1.00
6756;DHT22;3415;51.148;7.014;2023-02-01T11:39:10;6.50;1.00
6756;DHT22;3415;51.148;7.014;2023-02-01T11:42:03;6.50;1.00
6756;DHT22;3415;51.148;7.014;2023-02-01T11:44:34;6.50;1.00
6756;DHT22;3415;51.148;7.014;2023-02-01T11:47:23;6.50;1.00
6756;DHT22;3415;51.148;7.014;2023-02-01T11:49:53;6.50;1.00
6756;DHT22;3415;51.148;7.014;2023-02-01T11:52:41;6.50;1.00
6756;DHT22;3415;51.148;7.014;2023-02-01T11:55:55;6.50;1.00
6756;DHT22;3415;51.148;7.014;2023-02-01T11:58:36;6.50;1.00
6756;DHT22;3415;51.148;7.014;2023-02-01T12:01:27;6.50;1.00
6756;DHT22;3415;51.148;7.014;2023-02-01T12:07:19;6.50;1.00
6756;DHT22;3415;51.148;7.014;2023-02-01T12:10:01;6.50;1.00
6756;DHT22;3415;51.148;7.014;2023-02-01T12:12:39;6.70;1.00
6756;DHT22;3415;51.148;7.014;2023-02-01T12:15:21;6.50;1.00
6756;DHT22;3415;51.148;7.014;2023-02-01T12:21:26;6.50;1.00
6756;DHT22;3415;51.148;7.014;2023-02-01T12:24:11;6.60;1.00
6756;DHT22;3415;51.148;7.014;2023-02-01T12:27:04;6.60;1.00
6756;DHT22;3415;51.148;7.014;2023-02-01T12:29:56;6.60;1.00
6756;DHT22;3415;51.148;7.014;2023-02-01T12:32:41;6.60;1.00
6756;DHT22;3415;51.148;7.014;2023-02-01T12:35:31;6.70;1.00
6756;DHT22;3415;51.148;7.014;2023-02-01T12:38:19;6.60;1.00
6756;DHT22;3415;51.148;7.014;2023-02-01T12:41:05;6.70;1.00
6756;DHT22;3415;51.148;7.014;2023-02-01T12:43:43;6.70;1.00
6756;DHT22;3415;51.148;7.014;2023-02-01T12:46:16;6.80;1.00
6756;DHT22;3415;51.148;7.014;2023-02-01T12:48:54;6.80;1.00
6756;DHT22;3415;51.148;7.014;2023-02-01T12:51:26;6.80;1.00
6756;DHT22;3415;51.148;7.014;2023-02-01T12:53:57;6.80;1.00
6756;DHT22;3415;51.148;7.014;2023-02-01T12:56:32;6.80;1.00
6756;DHT22;3415;51.148;7.014;2023-02-01T12:59:11;6.80;1.00
6756;DHT22;3415;51.148;7.014;2023-02-01T13:01:47;6.80;1.00
6756;DHT22;3415;51.148;7.014;2023-02-01T13:04:25;6.80;1.00
6756;DHT22;3415;51.148;7.014;2023-02-01T13:06:59;6.80;1.00
6756;DHT22;3415;51.148;7.014;2023-02-01T13:09:37;6.80;1.00
6756;DHT22;3415;51.148;7.014;2023-02-01T13:12:12;6.80;1.00
6756;DHT22;3415;51.148;7.014;2023-02-01T13:14:46;6.80;1.00
6756;DHT22;3415;51.148;7.014;2023-02-01T13:17:19;6.80;1.00
6756;DHT22;3415;51.148;7.014;2023-02-01T13:19:52;6.90;1.00
6756;DHT22;3415;51.148;7.014;2023-02-01T13:22:26;6.90;1.00
6756;DHT22;3415;51.148;7.014;2023-02-01T13:24:58;6.90;1.00
6756;DHT22;3415;51.148;7.014;2023-02-01T13:27:28;6.90;1.00
6756;DHT22;3415;51.148;7.014;2023-02-01T13:30:00;6.90;1.00
6756;DHT22;3415;51.148;7.014;2023-02-01T13:36:14;6.90;1.00
6756;DHT22;3415;51.148;7.014;2023-02-01T13:42:23;7.00;1.00
6756;DHT22;3415;51.148;7.014;2023-02-01T13:44:58;7.00;1.00
6756;DHT22;3415;51.148;7.014;2023-02-01T13:47:29;7.00;1.00
6756;DHT22;3415;51.148;7.014;2023-02-01T13:49:59;7.00;1.00
6756;DHT22;3415;51.148;7.014;2023-02-01T13:52:37;7.00;1.00
6756;DHT22;3415;51.148;7.014;2023-02-01T13:55:25;7.00;1.00
6756;DHT22;3415;51.148;7.014;2023-02-01T13:58:06;7.00;1.00
6756;DHT22;3415;51.148;7.014;2023-02-01T14:00:42;6.90;1.00
6756;DHT22;3415;51.148;7.014;2023-02-01T14:03:13;6.80;1.00
6756;DHT22;3415;51.148;7.014;2023-02-01T14:06:15;6.80;1.00
6756;DHT22;3415;51.148;7.014;2023-02-01T14:08:46;6.90;1.00
6756;DHT22;3415;51.148;7.014;2023-02-01T14:11:46;7.00;1.00
6756;DHT22;3415;51.148;7.014;2023-02-01T14:14:45;7.00;1.00
6756;DHT22;3415;51.148;7.014;2023-02-01T14:17:37;6.90;1.00
6756;DHT22;3415;51.148;7.014;2023-02-01T14:23:12;7.10;1.00
6756;DHT22;3415;51.148;7.014;2023-02-01T14:25:42;7.10;1.00
6756;DHT22;3415;51.148;7.014;2023-02-01T14:28:24;7.10;1.00
6756;DHT22;3415;51.148;7.014;2023-02-01T14:30:53;7.10;1.00
6756;DHT22;3415;51.148;7.014;2023-02-01T14:33:24;7.10;1.00
6756;DHT22;3415;51.148;7.014;2023-02-01T14:36:05;7.10;1.00
6756;DHT22;3415;51.148;7.014;2023-02-01T14:38:35;7.20;1.00
6756;DHT22;3415;51.148;7.014;2023-02-01T14:41:28;7.30;1.00
6756;DHT22;3415;51.148;7.014;2023-02-01T14:44:29;7.30;1.00
6756;DHT22;3415;51.148;7.014;2023-02-01T14:50:22;7.20;1.00
6756;DHT22;3415;51.148;7.014;2023-02-01T14:53:03;7.20;1.00
6756;DHT22;3415;51.148;7.014;2023-02-01T14:55:37;7.20;1.00
6756;DHT22;3415;51.148;7.014;2023-02-01T14:58:10;7.20;1.00
6756;DHT22;3415;51.148;7.014;2023-02-01T15:00:47;7.20;1.00
6756;DHT22;3415;51.148;7.014;2023-02-01T15:03:30;7.30;1.00
6756;DHT22;3415;51.148;7.014;2023-02-01T15:06:27;7.20;1.00
6756;DHT22;3415;51.148;7.014;2023-02-01T15:08:59;7.20;1.00
6756;DHT22;3415;51.148;7.014;2023-02-01T15:11:29;7.20;1.00
6756;DHT22;3415;51.148;7.014;2023-02-01T15:13:56;7.30;1.00
6756;DHT22;3415;51.148;7.014;2023-02-01T15:16:26;7.40;1.00
6756;DHT22;3415;51.148;7.014;2023-02-01T15:19:09;7.30;1.00
6756;DHT22;3415;51.148;7.014;2023-02-01T15:21:47;7.30;1.00
6756;DHT22;3415;51.148;7.014;2023-02-01T15:24:20;7.40;1.00
6756;DHT22;3415;51.148;7.014;2023-02-01T15:26:49;7.40;1.00
6756;DHT22;3415;51.148;7.014;2023-02-01T15:29:17;7.40;1.00
6756;DHT22;3415;51.148;7.014;2023-02-01T15:31:47;7.40;1.00
6756;DHT22;3415;51.148;7.014;2023-02-01T15:34:16;7.30;1.00
6756;DHT22;3415;51.148;7.014;2023-02-01T15:36:44;7.30;1.00
6756;DHT22;3415;51.148;7.014;2023-02-01T15:39:19;7.30;1.00
6756;DHT22;3415;51.148;7.014;2023-02-01T15:41:54;7.30;1.00
6756;DHT22;3415;51.148;7.014;2023-02-01T15:44:30;7.30;1.00
6756;DHT22;3415;51.148;7.014;2023-02-01T15:47:04;7.40;1.00
6756;DHT22;3415;51.148;7.014;2023-02-01T15:49:37;7.30;1.00
6756;DHT22;3415;51.148;7.014;2023-02-01T15:52:21;7.40;1.00
6756;DHT22;3415;51.148;7.014;2023-02-01T15:54:52;7.40;1.00
6756;DHT22;3415;51.148;7.014;2023-02-01T15:57:23;7.40;1.00
6756;DHT22;3415;51.148;7.014;2023-02-01T15:59:57;7.50;1.00
6756;DHT22;3415;51.148;7.014;2023-02-01T16:02:36;7.40;1.00
6756;DHT22;3415;51.148;7.014;2023-02-01T16:05:24;7.40;1.00
6756;DHT22;3415;51.148;7.014;2023-02-01T16:08:00;7.40;1.00
6756;DHT22;3415;51.148;7.014;2023-02-01T16:10:29;7.40;1.00
6756;DHT22;3415;51.148;7.014;2023-02-01T16:12:57;7.50;1.00
6756;DHT22;3415;51.148;7.014;2023-02-01T16:15:25;7.50;1.00
6756;DHT22;3415;51.148;7.014;2023-02-01T16:20:22;7.50;1.00
6756;DHT22;3415;51.148;7.014;2023-02-01T16:22:49;7.50;1.00
6756;DHT22;3415;51.148;7.014;2023-02-01T16:25:17;7.40;1.00
6756;DHT22;3415;51.148;7.014;2023-02-01T16:27:44;7.40;1.00
6756;DHT22;3415;51.148;7.014;2023-02-01T16:30:11;7.40;1.00
6756;DHT22;3415;51.148;7.014;2023-02-01T16:32:39;7.40;1.00
6756;DHT22;3415;51.148;7.014;2023-02-01T16:35:14;7.40;1.00
6756;DHT22;3415;51.148;7.014;2023-02-01T16:37:44;7.30;1.00
6756;DHT22;3415;51.148;7.014;2023-02-01T16:40:13;7.40;1.00
6756;DHT22;3415;51.148;7.014;2023-02-01T16:42:42;7.30;1.00
6756;DHT22;3415;51.148;7.014;2023-02-01T16:45:09;7.30;1.00
6756;DHT22;3415;51.148;7.014;2023-02-01T16:47:38;7.30;1.00
6756;DHT22;3415;51.148;7.014;2023-02-01T16:50:15;7.30;1.00
6756;DHT22;3415;51.148;7.014;2023-02-01T16:52:44;7.40;1.00
6756;DHT22;3415;51.148;7.014;2023-02-01T16:55:12;7.40;1.00
6756;DHT22;3415;51.148;7.014;2023-02-01T16:57:42;7.30;1.00
6756;DHT22;3415;51.148;7.014;2023-02-01T17:00:11;7.30;1.00
6756;DHT22;3415;51.148;7.014;2023-02-01T17:02:39;7.30;1.00
6756;DHT22;3415;51.148;7.014;2023-02-01T17:05:08;7.30;1.00
6756;DHT22;3415;51.148;7.014;2023-02-01T17:07:36;7.30;1.00
6756;DHT22;3415;51.148;7.014;2023-02-01T17:10:04;7.40;1.00
6756;DHT22;3415;51.148;7.014;2023-02-01T17:12:32;7.40;1.00
6756;DHT22;3415;51.148;7.014;2023-02-01T17:15:01;7.40;1.00
6756;DHT22;3415;51.148;7.014;2023-02-01T17:17:33;7.40;1.00
6756;DHT22;3415;51.148;7.014;2023-02-01T17:20:03;7.30;1.00
6756;DHT22;3415;51.148;7.014;2023-02-01T17:22:31;7.30;1.00
6756;DHT22;3415;51.148;7.014;2023-02-01T17:24:59;7.30;1.00
6756;DHT22;3415;51.148;7.014;2023-02-01T17:27:26;7.30;1.00
6756;DHT22;3415;51.148;7.014;2023-02-01T17:29:55;7.30;1.00
6756;DHT22;3415;51.148;7.014;2023-02-01T17:32:24;7.30;1.00
6756;DHT22;3415;51.148;7.014;2023-02-01T17:34:52;7.30;1.00
6756;DHT22;3415;51.148;7.014;2023-02-01T17:37:24;7.30;1.00
6756;DHT22;3415;51.148;7.014;2023-02-01T17:39:52;7.40;1.00
6756;DHT22;3415;51.148;7.014;2023-02-01T17:42:24;7.40;1.00
6756;DHT22;3415;51.148;7.014;2023-02-01T17:44:55;7.40;1.00
6756;DHT22;3415;51.148;7.014;2023-02-01T17:47:24;7.40;1.00